KMGEKVPC

Guest
Details From KMGE - DOBBINS ARB
To KVPC - CARTERSVILLE
Flight Number -
Tags generated
Created
Modified
Stats Distance 21 nm / 38 km
Max Altitude 0 ft / 0 m
Waypoints 2
Social Downloads 0
Likes 0
Share VATSIM

Download

Looking for another format? Having issues loading an existing format? Contact us
Advertisement - Login to hide

Notes

Basic altitude profile: - Ascent Rate: 2500ft/min - Ascent Speed: 250kts - Cruise Altitude: 35000ft - Cruise Speed: 420kts - Descent Rate: 1500ft/min - Descent Speed: 250kts Options: - Use NATs: yes - Use PACOTS: yes - Use low airways: yes - Use high airways: yes

Route

KMGE KVPC

ID Type Via Altitude Latitude Longitude Leg Dist Tot Dist Heading (true) Name
O KMGE APT - 0 ft / 0 m 33.91528˚ -84.51635˚ - 0 nm - DOBBINS ARB
O KVPC APT - 0 ft / 0 m 34.12315˚ -84.84871˚ 20 nm 20 nm 307° / 307° CARTERSVILLE

Altitude Profile

Advertisement - Login to hide

KMGE

Details ICAO KMGE (MGE)
Name DOBBINS ARB
Region United States
Timezone America/New_York (UTC-5.0)
Stats Elevation 1,068 ft / 326 m (AMSL)
Location 33.915275° -84.516347°
Runways 1
Magnetic Variation 5.072° W

METAR

KMGE 131056Z AUTO 30008KT 10SM CLR M02/M13 A3002 RMK AO2 SLP175 T10231126 $

Decode

TAF

TAF AMD KMGE 130710Z 1307/1412 31012KT 9999 SKC QNH2996INS TEMPO 1307/1308 31015G25KT BECMG 1314/1315 25009KT 9999 FEW100 QNH2984INS BECMG 1404/1405 27006KT 9999 FEW100 QNH2981INS TX08/1321Z TNM03/1312Z

Decode

Departure Runways

ID Width Length Bearing (true) Bearing (mag) Surface Threshold Offset Overrun Length
11 300 ft / 91 m 9,986 ft / 3,044 m 106.30° 111.37° Concrete 0 ft / 0 m 1,000 ft / 305 m
29 300 ft / 91 m 9,986 ft / 3,044 m 286.32° 291.39° Concrete 0 ft / 0 m 1,000 ft / 305 m

KVPC

Details ICAO KVPC (VPC)
Name CARTERSVILLE
Region United States
Timezone America/New_York (UTC-5.0)
Stats Elevation 759 ft / 231 m (AMSL)
Location 34.123147° -84.848707°
Runways 1
Magnetic Variation 4.870° W

METAR

KVPC 131053Z AUTO 00000KT 10SM CLR M03/M11 A3006 RMK AO2 SLP181 T10281106

Decode

TAF

Not found

Destination Runways

ID Width Length Bearing (true) Bearing (mag) Surface Threshold Offset Overrun Length
01 100 ft / 30 m 5,776 ft / 1,761 m 3.47° 8.34° Asphalt 740 ft / 226 m 0 ft / 0 m
19 100 ft / 30 m 5,776 ft / 1,761 m 183.47° 188.34° Asphalt 0 ft / 0 m 0 ft / 0 m

Approach Navaids

Runway Type Ident Frequency Range Bearing (true) Bearing (mag) Slope Elevation
19 Localiser IVPC 110.35 MHz 18 nm / 33 km 183.47° 188.34° - 759 ft / 231 m (AMSL)
19 DME IVPC 110.35 MHz 18 nm / 33 km - - - 759 ft / 231 m (AMSL)